createdAt,value
2022-11-29T00:00:06.235Z,1011.47
2022-11-29T00:01:06.224Z,1011.49
2022-11-29T00:02:06.332Z,1011.46
2022-11-29T00:03:06.368Z,1011.42
2022-11-29T00:04:06.189Z,1011.49
2022-11-29T00:05:06.171Z,1011.38
2022-11-29T00:06:06.186Z,1011.42
2022-11-29T00:07:06.151Z,1011.47
2022-11-29T00:08:06.150Z,1011.46
2022-11-29T00:09:06.142Z,1011.45
2022-11-29T00:10:06.121Z,1011.41
2022-11-29T00:11:06.107Z,1011.41
2022-11-29T00:12:06.108Z,1011.43
2022-11-29T00:13:06.089Z,1011.46
2022-11-29T00:14:06.077Z,1011.46
2022-11-29T00:15:06.064Z,1011.46
2022-11-29T00:16:06.047Z,1011.39
2022-11-29T00:17:06.043Z,1011.43
2022-11-29T00:18:06.036Z,1011.36
2022-11-29T00:19:06.020Z,1011.42
2022-11-29T00:20:06.001Z,1011.43
2022-11-29T00:21:05.996Z,1011.38
2022-11-29T00:22:06.009Z,1011.39
2022-11-29T00:23:05.976Z,1011.40
2022-11-29T00:24:05.965Z,1011.47
2022-11-29T00:25:05.954Z,1011.45
2022-11-29T00:26:05.935Z,1011.36
2022-11-29T00:27:05.934Z,1011.39
2022-11-29T00:28:05.912Z,1011.42
2022-11-29T00:29:05.902Z,1011.47
2022-11-29T00:30:05.893Z,1011.48
2022-11-29T00:31:05.952Z,1011.46
2022-11-29T00:32:05.874Z,1011.44
2022-11-29T00:33:05.861Z,1011.43
2022-11-29T00:34:05.854Z,1011.47
2022-11-29T00:35:09.641Z,1011.51
2022-11-29T00:36:05.832Z,1011.54
2022-11-29T00:37:05.811Z,1011.50
2022-11-29T00:38:07.836Z,1011.54
2022-11-29T00:39:05.802Z,1011.45
2022-11-29T00:40:05.786Z,1011.48
2022-11-29T00:41:05.781Z,1011.51
2022-11-29T00:42:05.761Z,1011.50
2022-11-29T00:43:05.748Z,1011.50
2022-11-29T00:44:05.736Z,1011.47
2022-11-29T00:45:05.727Z,1011.48
2022-11-29T00:46:05.742Z,1011.46
2022-11-29T00:47:05.698Z,1011.50
2022-11-29T00:48:05.693Z,1011.49
2022-11-29T00:49:05.675Z,1011.44
2022-11-29T00:50:05.664Z,1011.47
2022-11-29T00:51:05.655Z,1011.42
2022-11-29T00:52:05.655Z,1011.40
2022-11-29T00:53:05.644Z,1011.48
2022-11-29T00:54:05.648Z,1011.53
2022-11-29T00:55:05.607Z,1011.52
2022-11-29T00:56:05.609Z,1011.46
2022-11-29T00:57:05.591Z,1011.47
2022-11-29T00:58:05.587Z,1011.51
2022-11-29T00:59:05.569Z,1011.50
2022-11-29T01:00:05.553Z,1011.52
2022-11-29T01:01:05.617Z,1011.55
2022-11-29T01:02:05.586Z,1011.50
2022-11-29T01:03:05.520Z,1011.46
2022-11-29T01:04:05.507Z,1011.53
2022-11-29T01:05:05.507Z,1011.52
2022-11-29T01:06:05.486Z,1011.53
2022-11-29T01:07:05.487Z,1011.51
2022-11-29T01:08:05.468Z,1011.55
2022-11-29T01:09:05.461Z,1011.50
2022-11-29T01:10:05.469Z,1011.50
2022-11-29T01:11:05.438Z,1011.47
2022-11-29T01:12:05.423Z,1011.47
2022-11-29T01:13:05.421Z,1011.46
2022-11-29T01:14:05.402Z,1011.45
2022-11-29T01:15:05.388Z,1011.41
2022-11-29T01:16:05.370Z,1011.48
2022-11-29T01:17:05.410Z,1011.46
2022-11-29T01:18:05.355Z,1011.42
2022-11-29T01:19:05.347Z,1011.45
2022-11-29T01:20:05.326Z,1011.44
2022-11-29T01:21:05.321Z,1011.47
2022-11-29T01:22:05.313Z,1011.42
2022-11-29T01:23:05.301Z,1011.44
2022-11-29T01:24:05.286Z,1011.49
2022-11-29T01:25:05.276Z,1011.49
2022-11-29T01:26:05.283Z,1011.45
2022-11-29T01:27:05.255Z,1011.42
2022-11-29T01:28:05.235Z,1011.48
2022-11-29T01:29:05.236Z,1011.54
2022-11-29T01:30:05.214Z,1011.52
2022-11-29T01:31:05.228Z,1011.51
2022-11-29T01:32:05.198Z,1011.51
2022-11-29T01:33:05.182Z,1011.48
2022-11-29T01:34:05.169Z,1011.56
2022-11-29T01:35:05.163Z,1011.57
2022-11-29T01:36:05.162Z,1011.51
2022-11-29T01:37:05.141Z,1011.54
2022-11-29T01:38:05.126Z,1011.48
2022-11-29T01:39:05.130Z,1011.53
2022-11-29T01:40:05.108Z,1011.53
2022-11-29T01:41:05.098Z,1011.52
2022-11-29T01:42:05.111Z,1011.55
2022-11-29T01:43:05.073Z,1011.45
2022-11-29T01:44:05.062Z,1011.48
2022-11-29T01:45:05.050Z,1011.43
2022-11-29T01:46:05.079Z,1011.45
2022-11-29T01:47:05.022Z,1011.45
2022-11-29T01:48:05.022Z,1011.39
2022-11-29T01:49:05.005Z,1011.47
2022-11-29T01:50:04.994Z,1011.45
2022-11-29T01:51:04.978Z,1011.50
2022-11-29T01:52:04.973Z,1011.36
2022-11-29T01:53:04.954Z,1011.43
2022-11-29T01:54:04.943Z,1011.41
2022-11-29T01:55:04.933Z,1011.44
2022-11-29T01:56:04.990Z,1011.47
2022-11-29T01:57:04.919Z,1011.42
2022-11-29T01:58:04.925Z,1011.46
2022-11-29T01:59:04.886Z,1011.39
2022-11-29T02:00:04.874Z,1011.48
2022-11-29T02:01:04.892Z,1011.50
2022-11-29T02:02:04.903Z,1011.43
2022-11-29T02:03:04.842Z,1011.46
2022-11-29T02:04:04.830Z,1011.47
2022-11-29T02:05:04.818Z,1011.47
2022-11-29T02:06:04.816Z,1011.47
2022-11-29T02:07:04.797Z,1011.44
2022-11-29T02:08:04.791Z,1011.44
2022-11-29T02:09:04.779Z,1011.44
2022-11-29T02:10:04.765Z,1011.46
2022-11-29T02:11:04.751Z,1011.44
2022-11-29T02:12:04.746Z,1011.43
2022-11-29T02:13:04.728Z,1011.49
2022-11-29T02:14:04.757Z,1011.42
2022-11-29T02:15:04.706Z,1011.45
2022-11-29T02:16:04.759Z,1011.45
2022-11-29T02:17:04.693Z,1011.44
2022-11-29T02:18:04.679Z,1011.47
2022-11-29T02:19:04.664Z,1011.47
2022-11-29T02:20:04.657Z,1011.48
2022-11-29T02:21:04.655Z,1011.45
2022-11-29T02:22:04.629Z,1011.50
2022-11-29T02:23:04.627Z,1011.47
2022-11-29T02:24:04.607Z,1011.49
2022-11-29T02:25:04.605Z,1011.47
2022-11-29T02:26:04.592Z,1011.46
2022-11-29T02:27:04.571Z,1011.54
2022-11-29T02:28:04.566Z,1011.46
2022-11-29T02:29:04.552Z,1011.51
2022-11-29T02:30:04.571Z,1011.47
2022-11-29T02:31:04.547Z,1011.55
2022-11-29T02:32:04.520Z,1011.54
2022-11-29T02:33:04.511Z,1011.54
2022-11-29T02:34:04.497Z,1011.53
2022-11-29T02:35:04.480Z,1011.56
2022-11-29T02:36:04.469Z,1011.54
2022-11-29T02:37:10.075Z,1011.53
2022-11-29T02:38:04.455Z,1011.53
2022-11-29T02:39:04.443Z,1011.59
2022-11-29T02:40:04.432Z,1011.60
2022-11-29T02:41:04.419Z,1011.59
2022-11-29T02:42:04.408Z,1011.61
2022-11-29T02:43:04.400Z,1011.54
2022-11-29T02:44:04.385Z,1011.62
2022-11-29T02:45:04.367Z,1011.63
2022-11-29T02:46:04.428Z,1011.56
2022-11-29T02:47:04.357Z,1011.64
2022-11-29T02:48:04.338Z,1011.63
2022-11-29T02:49:04.333Z,1011.66
2022-11-29T02:50:04.320Z,1011.65
2022-11-29T02:51:04.313Z,1011.58
2022-11-29T02:52:04.295Z,1011.64
2022-11-29T02:53:04.282Z,1011.61
2022-11-29T02:54:04.267Z,1011.77
2022-11-29T02:55:04.266Z,1011.79
2022-11-29T02:56:04.243Z,1011.71
2022-11-29T02:57:04.230Z,1011.76
2022-11-29T02:58:04.231Z,1011.62
2022-11-29T02:59:04.214Z,1011.67
2022-11-29T03:00:04.205Z,1011.66
2022-11-29T03:01:04.327Z,1011.69
2022-11-29T03:02:04.290Z,1011.68
2022-11-29T03:03:04.173Z,1011.70
2022-11-29T03:04:04.159Z,1011.63
2022-11-29T03:05:04.140Z,1011.61
2022-11-29T03:06:04.139Z,1011.68
2022-11-29T03:07:04.128Z,1011.69
2022-11-29T03:08:04.113Z,1011.61
2022-11-29T03:09:04.110Z,1011.74
2022-11-29T03:10:04.104Z,1011.72
2022-11-29T03:11:04.082Z,1011.75
2022-11-29T03:12:04.073Z,1011.69
2022-11-29T03:13:04.061Z,1011.71
2022-11-29T03:14:04.056Z,1011.74
2022-11-29T03:15:04.028Z,1011.79
2022-11-29T03:16:04.123Z,1011.77
2022-11-29T03:17:04.020Z,1011.76
2022-11-29T03:18:04.023Z,1011.79
2022-11-29T03:19:03.988Z,1011.79
2022-11-29T03:20:03.978Z,1011.73
2022-11-29T03:21:03.968Z,1011.77
2022-11-29T03:22:03.949Z,1011.84
2022-11-29T03:23:03.941Z,1011.75
2022-11-29T03:24:03.926Z,1011.79
2022-11-29T03:25:03.919Z,1011.78
2022-11-29T03:26:03.910Z,1011.80
2022-11-29T03:27:03.904Z,1011.79
2022-11-29T03:28:03.889Z,1011.79
2022-11-29T03:29:03.879Z,1011.89
2022-11-29T03:30:03.858Z,1011.81
2022-11-29T03:31:03.926Z,1011.86
2022-11-29T03:32:03.839Z,1011.85
2022-11-29T03:33:03.832Z,1011.86
2022-11-29T03:34:03.873Z,1011.84
2022-11-29T03:35:03.803Z,1011.82
2022-11-29T03:36:03.805Z,1011.86
2022-11-29T03:37:03.788Z,1011.87
2022-11-29T03:38:03.772Z,1011.91
2022-11-29T03:39:03.764Z,1011.94
2022-11-29T03:40:03.754Z,1011.97
2022-11-29T03:41:03.739Z,1011.95
2022-11-29T03:42:03.732Z,1011.95
2022-11-29T03:43:03.720Z,1011.94
2022-11-29T03:44:03.714Z,1011.95
2022-11-29T03:45:03.708Z,1011.96
2022-11-29T03:46:03.756Z,1011.98
2022-11-29T03:47:03.686Z,1012.01
2022-11-29T03:48:03.667Z,1011.96
2022-11-29T03:49:03.661Z,1012.01
2022-11-29T03:50:03.681Z,1012.05
2022-11-29T03:51:03.631Z,1012.08
2022-11-29T03:52:03.614Z,1012.00
2022-11-29T03:53:03.607Z,1012.01
2022-11-29T03:54:03.591Z,1011.97
2022-11-29T03:55:03.588Z,1012.09
2022-11-29T03:56:03.579Z,1012.01
2022-11-29T03:57:03.573Z,1011.97
2022-11-29T03:58:03.556Z,1011.98
2022-11-29T03:59:03.540Z,1011.99
2022-11-29T04:00:03.534Z,1011.96
2022-11-29T04:01:03.523Z,1011.94
2022-11-29T04:02:03.510Z,1011.95
2022-11-29T04:03:03.553Z,1011.94
2022-11-29T04:04:03.486Z,1011.92
2022-11-29T04:05:03.482Z,1011.91
2022-11-29T04:06:03.483Z,1011.88
2022-11-29T04:07:03.459Z,1011.93
2022-11-29T04:08:03.441Z,1011.89
2022-11-29T04:09:03.427Z,1011.91
2022-11-29T04:10:03.521Z,1011.92
2022-11-29T04:11:03.403Z,1011.98
2022-11-29T04:12:03.395Z,1011.90
2022-11-29T04:13:03.383Z,1011.92
2022-11-29T04:14:03.375Z,1011.94
2022-11-29T04:15:03.371Z,1011.99
2022-11-29T04:16:03.362Z,1011.92
2022-11-29T04:17:03.334Z,1011.94
2022-11-29T04:18:03.321Z,1011.98
2022-11-29T04:19:03.310Z,1011.99
2022-11-29T04:20:03.313Z,1011.99
2022-11-29T04:21:03.293Z,1011.99
2022-11-29T04:22:03.298Z,1012.01
2022-11-29T04:23:03.269Z,1012.02
2022-11-29T04:24:03.257Z,1012.04
2022-11-29T04:25:03.249Z,1012.02
2022-11-29T04:26:03.238Z,1012.00
2022-11-29T04:27:03.232Z,1012.07
2022-11-29T04:28:03.215Z,1012.07
2022-11-29T04:29:03.197Z,1012.00
2022-11-29T04:30:03.185Z,1012.04
2022-11-29T04:31:03.215Z,1011.99
2022-11-29T04:32:03.169Z,1012.05
2022-11-29T04:33:03.200Z,1012.03
2022-11-29T04:34:03.140Z,1011.97
2022-11-29T04:35:03.136Z,1012.00
2022-11-29T04:36:03.125Z,1011.99
2022-11-29T04:37:03.113Z,1012.03
2022-11-29T04:38:03.138Z,1012.09
2022-11-29T04:39:03.092Z,1012.08
2022-11-29T04:40:03.081Z,1012.07
2022-11-29T04:41:03.068Z,1012.04
2022-11-29T04:42:03.052Z,1012.08
2022-11-29T04:43:03.039Z,1012.10
2022-11-29T04:44:03.029Z,1012.09
2022-11-29T04:45:03.026Z,1012.10
2022-11-29T04:46:03.052Z,1012.03
2022-11-29T04:47:03.004Z,1012.15
2022-11-29T04:48:02.996Z,1012.11
2022-11-29T04:49:02.979Z,1012.15
2022-11-29T04:50:02.962Z,1012.17
2022-11-29T04:51:02.956Z,1012.10
2022-11-29T04:52:02.950Z,1012.09
2022-11-29T04:53:02.927Z,1012.16
2022-11-29T04:54:02.944Z,1012.10
2022-11-29T04:55:02.914Z,1012.14
2022-11-29T04:56:02.894Z,1012.16
2022-11-29T04:57:02.893Z,1012.10
2022-11-29T04:58:02.877Z,1012.17
2022-11-29T04:59:02.869Z,1012.14
2022-11-29T05:00:02.848Z,1012.19
2022-11-29T05:01:02.845Z,1012.18
2022-11-29T05:02:02.923Z,1012.19
2022-11-29T05:03:02.850Z,1012.13
2022-11-29T05:04:02.809Z,1012.15
2022-11-29T05:05:02.801Z,1012.18
2022-11-29T05:06:02.789Z,1012.19
2022-11-29T05:07:02.778Z,1012.17
2022-11-29T05:08:02.766Z,1012.12
2022-11-29T05:09:02.754Z,1012.14
2022-11-29T05:10:02.765Z,1012.15
2022-11-29T05:11:02.724Z,1012.17
2022-11-29T05:12:02.729Z,1012.14
2022-11-29T05:13:02.709Z,1012.23
2022-11-29T05:14:02.690Z,1012.18
2022-11-29T05:15:02.690Z,1012.16
2022-11-29T05:16:02.733Z,1012.13
2022-11-29T05:17:02.659Z,1012.17
2022-11-29T05:18:02.652Z,1012.24
2022-11-29T05:19:02.636Z,1012.18
2022-11-29T05:20:02.628Z,1012.17
2022-11-29T05:21:02.612Z,1012.21
2022-11-29T05:22:02.606Z,1012.31
2022-11-29T05:23:02.596Z,1012.36
2022-11-29T05:24:02.577Z,1012.29
2022-11-29T05:25:02.569Z,1012.30
2022-11-29T05:26:02.583Z,1012.31
2022-11-29T05:27:02.549Z,1012.36
2022-11-29T05:28:08.483Z,1012.36
2022-11-29T05:29:02.530Z,1012.41
2022-11-29T05:30:02.515Z,1012.39
2022-11-29T05:31:02.529Z,1012.38
2022-11-29T05:32:02.493Z,1012.37
2022-11-29T05:33:02.479Z,1012.36
2022-11-29T05:34:02.468Z,1012.41
2022-11-29T05:35:02.459Z,1012.42
2022-11-29T05:36:02.457Z,1012.49
2022-11-29T05:37:02.443Z,1012.45
2022-11-29T05:38:02.426Z,1012.40
2022-11-29T05:39:02.407Z,1012.46
2022-11-29T05:40:02.403Z,1012.49
2022-11-29T05:41:02.391Z,1012.52
2022-11-29T05:42:02.409Z,1012.53
2022-11-29T05:43:02.379Z,1012.52
2022-11-29T05:44:02.357Z,1012.49
2022-11-29T05:45:02.351Z,1012.51
2022-11-29T05:46:02.401Z,1012.53
2022-11-29T05:47:02.321Z,1012.56
2022-11-29T05:48:02.309Z,1012.61
2022-11-29T05:49:02.301Z,1012.56
2022-11-29T05:50:02.284Z,1012.58
2022-11-29T05:51:02.272Z,1012.61
2022-11-29T05:52:02.275Z,1012.56
2022-11-29T05:53:02.249Z,1012.58
2022-11-29T05:54:02.243Z,1012.61
2022-11-29T05:55:02.227Z,1012.62
2022-11-29T05:56:02.239Z,1012.60
2022-11-29T05:57:02.230Z,1012.63
2022-11-29T05:58:02.223Z,1012.57
2022-11-29T05:59:02.186Z,1012.59
2022-11-29T06:00:02.181Z,1012.63
2022-11-29T06:01:04.158Z,1012.66
2022-11-29T06:02:02.221Z,1012.62
2022-11-29T06:03:02.317Z,1012.60
2022-11-29T06:04:02.125Z,1012.58
2022-11-29T06:05:02.121Z,1012.63
2022-11-29T06:06:02.114Z,1012.67
2022-11-29T06:07:02.091Z,1012.65
2022-11-29T06:08:02.087Z,1012.65
2022-11-29T06:09:02.068Z,1012.74
2022-11-29T06:10:02.315Z,1012.71
2022-11-29T06:11:02.047Z,1012.75
2022-11-29T06:12:02.042Z,1012.74
2022-11-29T06:13:02.024Z,1012.72
2022-11-29T06:14:02.041Z,1012.73
2022-11-29T06:15:02.005Z,1012.81
2022-11-29T06:16:02.003Z,1012.75
2022-11-29T06:17:01.999Z,1012.85
2022-11-29T06:18:01.968Z,1012.81
2022-11-29T06:19:01.965Z,1012.75
2022-11-29T06:20:01.944Z,1012.84
2022-11-29T06:21:01.955Z,1012.84
2022-11-29T06:22:01.921Z,1012.80
2022-11-29T06:23:01.926Z,1012.90
2022-11-29T06:24:01.911Z,1012.89
2022-11-29T06:25:01.904Z,1012.88
2022-11-29T06:26:04.117Z,1012.91
2022-11-29T06:27:01.874Z,1012.84
2022-11-29T06:28:01.854Z,1012.93
2022-11-29T06:29:03.883Z,1012.92
2022-11-29T06:30:01.833Z,1012.94
2022-11-29T06:31:03.876Z,1012.94
2022-11-29T06:32:01.818Z,1012.92
2022-11-29T06:33:01.803Z,1012.97
2022-11-29T06:34:01.785Z,1012.91
2022-11-29T06:35:01.791Z,1012.97
2022-11-29T06:36:01.779Z,1012.93
2022-11-29T06:37:01.761Z,1012.96
2022-11-29T06:38:01.748Z,1013.00
2022-11-29T06:39:01.729Z,1013.00
2022-11-29T06:40:01.728Z,1012.98
2022-11-29T06:41:03.713Z,1012.97
2022-11-29T06:42:01.703Z,1012.99
2022-11-29T06:43:01.691Z,1013.04
2022-11-29T06:44:01.682Z,1013.00
2022-11-29T06:45:03.699Z,1013.01
2022-11-29T06:46:01.654Z,1013.00
2022-11-29T06:47:03.672Z,1013.04
2022-11-29T06:48:01.629Z,1013.02
2022-11-29T06:49:02.530Z,1013.12
2022-11-29T06:50:01.626Z,1013.09
2022-11-29T06:51:03.605Z,1013.10
2022-11-29T06:52:03.584Z,1013.10
2022-11-29T06:53:03.578Z,1013.10
2022-11-29T06:54:01.569Z,1013.05
2022-11-29T06:55:03.561Z,1013.17
2022-11-29T06:56:01.539Z,1013.19
2022-11-29T06:57:03.533Z,1013.15
2022-11-29T06:58:01.518Z,1013.18
2022-11-29T06:59:01.504Z,1013.29
2022-11-29T07:00:01.500Z,1013.24
2022-11-29T07:01:01.541Z,1013.21
2022-11-29T07:02:01.539Z,1013.24
2022-11-29T07:03:01.459Z,1013.21
2022-11-29T07:04:01.449Z,1013.34
2022-11-29T07:05:01.438Z,1013.22
2022-11-29T07:06:01.431Z,1013.21
2022-11-29T07:07:03.419Z,1013.30
2022-11-29T07:08:01.479Z,1013.20
2022-11-29T07:09:01.392Z,1013.23
2022-11-29T07:10:01.392Z,1013.27
2022-11-29T07:11:01.369Z,1013.28
2022-11-29T07:12:01.361Z,1013.26
2022-11-29T07:13:03.345Z,1013.22
2022-11-29T07:14:01.343Z,1013.30
2022-11-29T07:15:03.332Z,1013.28
2022-11-29T07:16:01.374Z,1013.26
2022-11-29T07:17:01.334Z,1013.33
2022-11-29T07:18:01.289Z,1013.36
2022-11-29T07:19:03.294Z,1013.36
2022-11-29T07:20:01.271Z,1013.34
2022-11-29T07:21:01.257Z,1013.29
2022-11-29T07:22:01.243Z,1013.36
2022-11-29T07:23:01.233Z,1013.29
2022-11-29T07:24:01.228Z,1013.30
2022-11-29T07:25:01.212Z,1013.33
2022-11-29T07:26:01.199Z,1013.35
2022-11-29T07:27:01.194Z,1013.31
2022-11-29T07:28:01.189Z,1013.31
2022-11-29T07:29:01.166Z,1013.34
2022-11-29T07:30:01.154Z,1013.33
2022-11-29T07:31:01.165Z,1013.40
2022-11-29T07:32:01.138Z,1013.36
2022-11-29T07:33:01.177Z,1013.38
2022-11-29T07:34:01.112Z,1013.38
2022-11-29T07:35:01.099Z,1013.38
2022-11-29T07:36:01.098Z,1013.44
2022-11-29T07:37:01.085Z,1013.34
2022-11-29T07:38:01.071Z,1013.36
2022-11-29T07:39:01.052Z,1013.41
2022-11-29T07:40:01.047Z,1013.42
2022-11-29T07:41:01.030Z,1013.48
2022-11-29T07:42:01.034Z,1013.53
2022-11-29T07:43:01.008Z,1013.50
2022-11-29T07:44:01.005Z,1013.42
2022-11-29T07:45:00.993Z,1013.51
2022-11-29T07:46:00.973Z,1013.55
2022-11-29T07:47:01.034Z,1013.54
2022-11-29T07:48:00.964Z,1013.55
2022-11-29T07:49:01.045Z,1013.52
2022-11-29T07:50:00.944Z,1013.59
2022-11-29T07:51:00.923Z,1013.57
2022-11-29T07:52:00.922Z,1013.59
2022-11-29T07:53:00.902Z,1013.58
2022-11-29T07:54:00.883Z,1013.61
2022-11-29T07:55:00.884Z,1013.59
2022-11-29T07:56:00.862Z,1013.65
2022-11-29T07:57:00.856Z,1013.69
2022-11-29T07:58:00.846Z,1013.67
2022-11-29T07:59:00.879Z,1013.64
2022-11-29T08:00:00.817Z,1013.63
2022-11-29T08:01:00.871Z,1013.63
2022-11-29T08:02:00.887Z,1013.71
2022-11-29T08:03:00.788Z,1013.72
2022-11-29T08:04:00.776Z,1013.61
2022-11-29T08:05:00.787Z,1013.62
2022-11-29T08:06:00.751Z,1013.65
2022-11-29T08:07:00.742Z,1013.67
2022-11-29T08:08:00.780Z,1013.69
2022-11-29T08:09:00.723Z,1013.73
2022-11-29T08:10:00.711Z,1013.70
2022-11-29T08:11:00.701Z,1013.75
2022-11-29T08:12:00.693Z,1013.67
2022-11-29T08:13:00.679Z,1013.67
2022-11-29T08:14:00.678Z,1013.76
2022-11-29T08:15:00.645Z,1013.77
2022-11-29T08:16:00.671Z,1013.67
2022-11-29T08:17:00.624Z,1013.66
2022-11-29T08:18:00.612Z,1013.70
2022-11-29T08:19:00.606Z,1013.79
2022-11-29T08:20:04.081Z,1013.78
2022-11-29T08:21:00.611Z,1013.73
2022-11-29T08:22:00.581Z,1013.75
2022-11-29T08:23:00.555Z,1013.76
2022-11-29T08:24:00.551Z,1013.79
2022-11-29T08:25:00.541Z,1013.75
2022-11-29T08:26:00.554Z,1013.81
2022-11-29T08:27:00.521Z,1013.75
2022-11-29T08:28:00.498Z,1013.81
2022-11-29T08:29:00.494Z,1013.77
2022-11-29T08:30:00.485Z,1013.76
2022-11-29T08:31:00.479Z,1013.78
2022-11-29T08:32:00.551Z,1013.78
2022-11-29T08:33:00.454Z,1013.83
2022-11-29T08:34:00.441Z,1013.82
2022-11-29T08:35:00.427Z,1013.88
2022-11-29T08:36:00.419Z,1013.86
2022-11-29T08:37:00.426Z,1013.80
2022-11-29T08:38:00.396Z,1013.89
2022-11-29T08:39:07.480Z,1013.83
2022-11-29T08:40:00.373Z,1013.85
2022-11-29T08:41:00.361Z,1013.86
2022-11-29T08:42:00.348Z,1013.89
2022-11-29T08:43:00.361Z,1013.85
2022-11-29T08:44:00.318Z,1013.85
2022-11-29T08:45:00.308Z,1013.90
2022-11-29T08:46:00.332Z,1013.93
2022-11-29T08:47:00.291Z,1013.86
2022-11-29T08:48:00.276Z,1013.85
2022-11-29T08:49:00.267Z,1013.88
2022-11-29T08:50:00.257Z,1013.88
2022-11-29T08:51:00.239Z,1013.89
2022-11-29T08:52:00.228Z,1013.93
2022-11-29T08:53:00.253Z,1013.79
2022-11-29T08:54:00.215Z,1013.90
2022-11-29T08:55:03.101Z,1013.77
2022-11-29T08:56:00.182Z,1013.88
2022-11-29T08:57:37.383Z,1013.84
2022-11-29T08:58:00.161Z,1013.85
2022-11-29T08:59:00.152Z,1013.88
2022-11-29T09:00:00.151Z,1013.80
2022-11-29T09:01:00.240Z,1013.89
2022-11-29T09:02:00.214Z,1013.86
2022-11-29T09:03:00.110Z,1013.90
2022-11-29T09:04:00.106Z,1013.88
2022-11-29T09:05:00.104Z,1013.82
2022-11-29T09:06:00.073Z,1013.88
2022-11-29T09:07:00.065Z,1013.84
2022-11-29T09:08:00.196Z,1013.94
2022-11-29T09:09:00.112Z,1013.93
2022-11-29T09:10:00.037Z,1013.97
2022-11-29T09:11:00.027Z,1013.98
2022-11-29T09:12:00.011Z,1013.91
2022-11-29T09:12:59.992Z,1013.99
2022-11-29T09:13:59.986Z,1013.90
2022-11-29T09:14:59.976Z,1014.00
2022-11-29T09:15:59.963Z,1014.03
2022-11-29T09:16:59.989Z,1014.01
2022-11-29T09:17:59.944Z,1014.01
2022-11-29T09:18:59.934Z,1014.00
2022-11-29T09:19:59.937Z,1014.04
2022-11-29T09:20:59.910Z,1014.04
2022-11-29T09:21:59.899Z,1014.07
2022-11-29T09:22:59.881Z,1014.03
2022-11-29T09:23:59.872Z,1014.05
2022-11-29T09:24:59.927Z,1014.09
2022-11-29T09:25:59.858Z,1014.05
2022-11-29T09:26:59.837Z,1014.02
2022-11-29T09:27:59.825Z,1014.05
2022-11-29T09:28:59.829Z,1014.00
2022-11-29T09:29:59.810Z,1013.99
2022-11-29T09:30:59.791Z,1014.06
2022-11-29T09:31:59.840Z,1014.04
2022-11-29T09:32:59.769Z,1014.06
2022-11-29T09:33:59.767Z,1013.95
2022-11-29T09:34:59.760Z,1014.04
2022-11-29T09:35:59.736Z,1014.04
2022-11-29T09:36:59.731Z,1013.99
2022-11-29T09:37:59.773Z,1014.02
2022-11-29T09:38:59.708Z,1014.08
2022-11-29T09:39:59.704Z,1014.06
2022-11-29T09:40:59.708Z,1014.05
2022-11-29T09:41:59.670Z,1014.07
2022-11-29T09:42:59.660Z,1014.05
2022-11-29T09:43:59.661Z,1014.04
2022-11-29T09:44:59.636Z,1014.00
2022-11-29T09:45:59.682Z,1014.02
2022-11-29T09:46:59.624Z,1014.06
2022-11-29T09:47:59.610Z,1014.10
2022-11-29T09:48:59.609Z,1014.08
2022-11-29T09:49:59.583Z,1014.00
2022-11-29T09:50:59.584Z,1014.04
2022-11-29T09:51:59.560Z,1014.02
2022-11-29T09:52:59.554Z,1014.12
2022-11-29T09:53:59.739Z,1014.07
2022-11-29T09:54:59.538Z,1014.11
2022-11-29T09:55:59.523Z,1014.08
2022-11-29T09:56:59.540Z,1014.01
2022-11-29T09:57:59.498Z,1014.02
2022-11-29T09:58:59.487Z,1013.99
2022-11-29T09:59:59.479Z,1014.04
2022-11-29T10:00:59.490Z,1014.07
2022-11-29T10:01:59.527Z,1014.04
2022-11-29T10:02:59.444Z,1014.06
2022-11-29T10:03:59.431Z,1014.06
2022-11-29T10:04:59.423Z,1014.14
2022-11-29T10:05:59.419Z,1014.08
2022-11-29T10:06:59.410Z,1014.07
2022-11-29T10:07:59.422Z,1014.12
2022-11-29T10:08:59.391Z,1014.02
2022-11-29T10:09:59.369Z,1014.12
2022-11-29T10:10:59.360Z,1014.12
2022-11-29T10:11:59.344Z,1014.17
2022-11-29T10:12:59.355Z,1014.17
2022-11-29T10:13:59.330Z,1014.14
2022-11-29T10:14:59.309Z,1014.15
2022-11-29T10:15:59.298Z,1014.19
2022-11-29T10:16:59.349Z,1014.14
2022-11-29T10:17:59.284Z,1014.18
2022-11-29T10:18:59.273Z,1014.13
2022-11-29T10:19:59.254Z,1014.13
2022-11-29T10:20:59.250Z,1014.12
2022-11-29T10:21:59.233Z,1014.17
2022-11-29T10:22:59.247Z,1014.10
2022-11-29T10:23:59.212Z,1014.18
2022-11-29T10:24:59.207Z,1014.22
2022-11-29T10:25:59.201Z,1014.19
2022-11-29T10:26:59.184Z,1014.19
2022-11-29T10:27:59.224Z,1014.20
2022-11-29T10:28:59.187Z,1014.19
2022-11-29T10:29:59.154Z,1014.24
2022-11-29T10:30:59.195Z,1014.22
2022-11-29T10:31:59.134Z,1014.25
2022-11-29T10:32:59.120Z,1014.24
2022-11-29T10:33:59.113Z,1014.24
2022-11-29T10:34:59.092Z,1014.21
2022-11-29T10:35:59.084Z,1014.26
2022-11-29T10:36:59.074Z,1014.22
2022-11-29T10:38:29.078Z,1014.26
2022-11-29T10:38:59.056Z,1014.29
2022-11-29T10:39:59.050Z,1014.26
2022-11-29T10:40:59.049Z,1014.26
2022-11-29T10:41:59.023Z,1014.34
2022-11-29T10:42:59.006Z,1014.30
2022-11-29T10:43:58.996Z,1014.36
2022-11-29T10:44:59.009Z,1014.28
2022-11-29T10:45:59.012Z,1014.31
2022-11-29T10:46:58.962Z,1014.27
2022-11-29T10:47:58.952Z,1014.31
2022-11-29T10:48:58.942Z,1014.25
2022-11-29T10:49:58.936Z,1014.29
2022-11-29T10:50:58.932Z,1014.27
2022-11-29T10:51:58.907Z,1014.29
2022-11-29T10:53:00.250Z,1014.27
2022-11-29T10:53:58.899Z,1014.23
2022-11-29T10:54:58.875Z,1014.26
2022-11-29T10:55:58.869Z,1014.29
2022-11-29T10:56:58.854Z,1014.32
2022-11-29T10:57:58.854Z,1014.29
2022-11-29T10:58:58.832Z,1014.35
2022-11-29T10:59:58.829Z,1014.31
2022-11-29T11:00:58.885Z,1014.35
2022-11-29T11:01:58.807Z,1014.31
2022-11-29T11:02:58.798Z,1014.32
2022-11-29T11:03:58.779Z,1014.24
2022-11-29T11:04:58.776Z,1014.32
2022-11-29T11:05:58.777Z,1014.32
2022-11-29T11:06:58.773Z,1014.25
2022-11-29T11:07:58.811Z,1014.21
2022-11-29T11:08:58.733Z,1014.27
2022-11-29T11:09:58.713Z,1014.30
2022-11-29T11:11:01.928Z,1014.29
2022-11-29T11:11:58.697Z,1014.31
2022-11-29T11:12:58.687Z,1014.28
2022-11-29T11:13:58.675Z,1014.32
2022-11-29T11:14:58.667Z,1014.28
2022-11-29T11:15:58.647Z,1014.30
2022-11-29T11:16:58.707Z,1014.27
2022-11-29T11:17:58.629Z,1014.26
2022-11-29T11:18:58.622Z,1014.29
2022-11-29T11:19:58.607Z,1014.20
2022-11-29T11:20:58.593Z,1014.33
2022-11-29T11:21:58.590Z,1014.37
2022-11-29T11:22:58.571Z,1014.28
2022-11-29T11:23:58.577Z,1014.35
2022-11-29T11:24:58.556Z,1014.34
2022-11-29T11:25:58.550Z,1014.36
2022-11-29T11:26:58.538Z,1014.29
2022-11-29T11:27:58.527Z,1014.33
2022-11-29T11:28:58.511Z,1014.32
2022-11-29T11:29:58.504Z,1014.28
2022-11-29T11:30:58.532Z,1014.34
2022-11-29T11:31:58.474Z,1014.35
2022-11-29T11:32:58.517Z,1014.30
2022-11-29T11:33:58.459Z,1014.40
2022-11-29T11:34:58.452Z,1014.37
2022-11-29T11:35:58.442Z,1014.32
2022-11-29T11:36:58.433Z,1014.33
2022-11-29T11:37:58.411Z,1014.39
2022-11-29T11:38:58.409Z,1014.40
2022-11-29T11:39:58.437Z,1014.36
2022-11-29T11:40:58.380Z,1014.39
2022-11-29T11:41:58.382Z,1014.39
2022-11-29T11:42:58.362Z,1014.35
2022-11-29T11:43:58.346Z,1014.35
2022-11-29T11:44:58.616Z,1014.37
2022-11-29T11:45:58.365Z,1014.41
2022-11-29T11:46:58.318Z,1014.36
2022-11-29T11:47:58.303Z,1014.36
2022-11-29T11:48:58.316Z,1014.37
2022-11-29T11:49:58.286Z,1014.36
2022-11-29T11:50:58.280Z,1014.46
2022-11-29T11:51:58.264Z,1014.46
2022-11-29T11:52:58.256Z,1014.45
2022-11-29T11:53:58.235Z,1014.42
2022-11-29T11:54:58.232Z,1014.37
2022-11-29T11:55:58.219Z,1014.40
2022-11-29T11:56:58.204Z,1014.42
2022-11-29T11:57:58.206Z,1014.42
2022-11-29T11:58:58.189Z,1014.40
2022-11-29T12:00:03.375Z,1014.44
2022-11-29T12:01:06.106Z,1014.38
2022-11-29T12:01:58.161Z,1014.41
2022-11-29T12:02:58.218Z,1014.48
2022-11-29T12:03:58.136Z,1014.47
2022-11-29T12:04:58.155Z,1014.43